Time;durP1;ratioP1;P1;durP2;ratioP2;P2;SDS_P1;SDS_P2;PMS_P1;PMS_P2;Temp;Humidity;BMP_temperature;BMP_pressure;BME280_temperature;BME280_humidity;BME280_pressure;Samples;Min_cycle;Max_cycle;Signal;HPM_P1;HPM_P2
2023/05/10 00:01:56;;;;;;;1.70;0.80;;;;;;;-145.69;100.00;52501.81;5065497;28;20198;-76
2023/05/10 00:04:22;;;;;;;0.90;0.50;;;;;;;-145.69;100.00;52527.56;5074005;28;20203;-78
2023/05/10 00:06:49;;;;;;;2.67;0.47;;;;;;;-145.69;100.00;52529.53;5073699;28;20202;-76
2023/05/10 00:09:15;;;;;;;0.83;0.63;;;;;;;-145.69;100.00;52507.75;5073882;28;20206;-76
2023/05/10 00:11:42;;;;;;;0.60;0.60;;;;;;;-145.69;100.00;52529.53;5061592;28;20276;-76
2023/05/10 00:14:09;;;;;;;0.50;0.50;;;;;;;-145.69;100.00;52503.81;5053943;28;20609;-76
2023/05/10 00:16:36;;;;;;;0.53;0.53;;;;;;;-145.69;100.00;52509.75;5053327;28;20199;-76
2023/05/10 00:19:02;;;;;;;1.50;0.73;;;;;;;-145.69;100.00;52533.50;5053569;28;20238;-76
2023/05/10 00:21:29;;;;;;;0.70;0.50;;;;;;;-145.69;100.00;52543.41;5053324;28;20550;-76
2023/05/10 00:23:55;;;;;;;0.40;0.40;;;;;;;-145.69;100.00;52537.47;5053760;28;20450;-76
2023/05/10 00:26:22;;;;;;;0.67;0.67;;;;;;;-145.69;100.00;52539.44;5053317;28;20199;-77
2023/05/10 00:28:48;;;;;;;0.50;0.50;;;;;;;-145.69;100.00;52525.59;5053453;28;20204;-76
2023/05/10 00:31:16;;;;;;;0.70;0.50;;;;;;;-145.69;100.00;52515.69;5053314;28;20294;-76
2023/05/10 00:33:43;;;;;;;2.93;0.57;;;;;;;-145.69;100.00;52519.63;5055417;28;20276;-76
2023/05/10 00:36:11;;;;;;;0.40;0.40;;;;;;;-145.69;100.00;52511.72;5072688;28;20199;-76
2023/05/10 00:38:37;;;;;;;2.93;0.63;;;;;;;-145.69;100.00;52539.44;5073336;28;20206;-76
2023/05/10 00:41:04;;;;;;;2.33;0.50;;;;;;;-145.69;100.00;52523.59;5073003;28;20198;-76
2023/05/10 00:43:33;;;;;;;0.57;0.50;;;;;;;-145.69;100.00;52545.38;5073059;28;20721;-76
2023/05/10 00:45:59;;;;;;;0.50;0.50;;;;;;;-145.69;100.00;52535.47;5071081;28;20238;-76
2023/05/10 00:48:27;;;;;;;0.73;0.60;;;;;;;-145.69;100.00;52525.59;5052766;28;20203;-77
2023/05/10 00:50:54;;;;;;;1.43;0.70;;;;;;;-145.69;100.00;52515.69;5052576;28;20198;-76
2023/05/10 00:53:22;;;;;;;0.70;0.60;;;;;;;-145.69;100.00;52529.53;5053180;28;20238;-77
2023/05/10 00:55:49;;;;;;;0.70;0.60;;;;;;;-145.69;100.00;52533.50;5053027;28;20206;-76
2023/05/10 00:58:16;;;;;;;3.17;0.60;;;;;;;-145.69;100.00;52551.31;5056146;28;20573;-76
2023/05/10 01:00:44;;;;;;;1.47;0.60;;;;;;;-145.69;100.00;52493.91;5073054;28;20222;-76
2023/05/10 01:03:11;;;;;;;0.93;0.70;;;;;;;-145.69;100.00;52521.63;5072675;28;20719;-76
2023/05/10 01:05:43;;;;;;;2.20;0.60;;;;;;;-145.69;100.00;52543.41;5073235;28;20294;-76
2023/05/10 01:08:10;;;;;;;0.87;0.87;;;;;;;-145.69;100.00;52525.59;5065644;28;20195;-76
2023/05/10 01:10:39;;;;;;;2.60;0.70;;;;;;;-145.69;100.00;52551.31;5052913;28;20646;-77
2023/05/10 01:13:08;;;;;;;2.37;0.70;;;;;;;-145.69;100.00;52527.56;5052872;28;20237;-76
2023/05/10 01:15:35;;;;;;;3.03;0.80;;;;;;;-145.69;100.00;52519.63;5065690;28;20191;-76
2023/05/10 01:18:03;;;;;;;3.50;0.80;;;;;;;-145.69;100.00;52539.44;5062673;28;20202;-77
2023/05/10 01:20:48;;;;;;;1.67;0.60;;;;;;;-145.69;100.00;52511.72;5071933;28;20285;-76
2023/05/10 01:23:38;;;;;;;1.00;1.00;;;;;;;-145.69;100.00;52523.59;5072868;28;20252;-75
2023/05/10 01:26:21;;;;;;;1.43;0.80;;;;;;;-145.69;100.00;52531.53;5072764;28;20293;-76
2023/05/10 01:29:19;;;;;;;4.07;1.00;;;;;;;-145.69;100.00;52517.66;5058779;28;20313;-76
2023/05/10 01:32:17;;;;;;;1.70;0.80;;;;;;;-145.69;100.00;52543.41;5051265;28;20199;-76
2023/05/10 01:34:52;;;;;;;1.57;0.70;;;;;;;-145.69;100.00;52531.53;5076788;28;20293;-76
2023/05/10 01:37:22;;;;;;;2.97;1.10;;;;;;;-145.69;100.00;52539.44;5076537;28;20209;-77
2023/05/10 01:39:58;;;;;;;0.80;0.80;;;;;;;-145.69;100.00;52531.53;5036762;28;20243;-76
2023/05/10 01:42:31;;;;;;;1.40;0.90;;;;;;;-145.69;100.00;52537.47;5036566;28;20593;-77
2023/05/10 01:45:04;;;;;;;1.93;0.87;;;;;;;-145.69;100.00;52565.19;5036596;28;20673;-76
2023/05/10 01:47:39;;;;;;;0.70;0.70;;;;;;;-145.69;100.00;52539.44;5036346;28;20587;-76
2023/05/10 01:50:10;;;;;;;1.67;0.70;;;;;;;-145.69;100.00;52531.53;5043795;28;20205;-77
2023/05/10 01:52:41;;;;;;;1.37;1.00;;;;;;;-145.69;100.00;52561.22;5076418;28;20310;-76
2023/05/10 01:55:14;;;;;;;1.17;0.67;;;;;;;-145.69;100.00;52571.13;5076313;28;20202;-76
2023/05/10 01:57:43;;;;;;;0.80;0.80;;;;;;;-145.69;100.00;52539.44;5076517;28;20209;-77
2023/05/10 02:00:13;;;;;;;1.17;0.90;;;;;;;-145.69;100.00;52569.16;5063590;28;20199;-76
2023/05/10 02:02:45;;;;;;;0.77;0.77;;;;;;;-145.69;100.00;52527.56;5058437;28;20665;-77
2023/05/10 02:05:17;;;;;;;1.10;1.00;;;;;;;-145.69;100.00;52527.56;5056212;28;20199;-76
2023/05/10 02:07:45;;;;;;;1.17;0.87;;;;;;;-145.69;100.00;52579.06;5055964;28;20654;-77
2023/05/10 02:10:14;;;;;;;4.47;1.40;;;;;;;-145.69;100.00;52575.09;5068409;28;20244;-78
2023/05/10 02:12:44;;;;;;;0.77;0.77;;;;;;;-145.69;100.00;52547.38;5076057;28;20226;-77
2023/05/10 02:15:14;;;;;;;6.37;0.97;;;;;;;-145.69;100.00;52543.41;5074914;28;20199;-77
2023/05/10 02:17:43;;;;;;;0.70;0.70;;;;;;;-145.69;100.00;52551.31;5073930;28;20203;-76
2023/05/10 02:20:11;;;;;;;0.63;0.63;;;;;;;-145.69;100.00;52551.31;5054003;28;20196;-76
2023/05/10 02:22:39;;;;;;;1.20;0.70;;;;;;;-145.69;100.00;52557.28;5072733;28;20195;-76
2023/05/10 02:25:09;;;;;;;2.60;0.83;;;;;;;-145.69;100.00;52581.03;5075731;28;20227;-77
2023/05/10 02:27:38;;;;;;;3.03;0.87;;;;;;;-145.69;100.00;52541.44;5076087;28;20253;-76
2023/05/10 02:30:06;;;;;;;3.03;0.80;;;;;;;-145.69;100.00;52551.31;5075802;28;20199;-76
2023/05/10 02:32:35;;;;;;;1.23;0.90;;;;;;;-145.69;100.00;52563.22;5073566;28;20222;-76
2023/05/10 02:35:04;;;;;;;2.17;1.00;;;;;;;-145.69;100.00;52555.28;5055802;28;20222;-76
2023/05/10 02:37:32;;;;;;;1.17;1.07;;;;;;;-145.69;100.00;52543.41;5075785;28;20205;-76
2023/05/10 02:40:02;;;;;;;1.37;1.10;;;;;;;-145.69;100.00;52533.50;5070265;28;20199;-76
2023/05/10 02:42:32;;;;;;;1.90;1.07;;;;;;;-145.69;100.00;52561.22;5055371;28;20226;-76
2023/05/10 02:45:01;;;;;;;2.63;1.00;;;;;;;-145.69;100.00;52573.13;5055459;28;20207;-76
2023/05/10 02:47:37;;;;;;;1.87;1.00;;;;;;;-145.69;100.00;52543.41;5074075;28;20713;-76
2023/05/10 02:50:08;;;;;;;2.03;0.87;;;;;;;-145.69;100.00;52547.38;5055995;28;20203;-76
2023/05/10 02:52:41;;;;;;;4.93;1.10;;;;;;;-145.69;100.00;52561.22;5055423;28;20258;-76
2023/05/10 02:55:10;;;;;;;0.90;0.90;;;;;;;-145.69;100.00;52551.31;5055318;28;20662;-76
2023/05/10 02:57:43;;;;;;;0.70;0.70;;;;;;;-145.69;100.00;52577.06;5058238;28;20198;-76
2023/05/10 03:00:11;;;;;;;1.57;1.20;;;;;;;-145.69;100.00;52569.16;5075096;28;20210;-76
2023/05/10 03:02:37;;;;;;;2.00;0.90;;;;;;;-145.69;100.00;52563.22;5075194;28;20273;-76
2023/05/10 03:05:06;;;;;;;1.77;0.90;;;;;;;-145.69;100.00;52539.44;5075260;28;20248;-76
2023/05/10 03:07:33;;;;;;;3.03;1.30;;;;;;;-145.69;100.00;52579.06;5074540;28;20207;-76
2023/05/10 03:10:00;;;;;;;1.33;1.10;;;;;;;-145.69;100.00;52559.25;5069332;28;20199;-75
2023/05/10 03:12:40;;;;;;;2.30;1.20;;;;;;;-145.69;100.00;52549.34;5054858;28;20211;-76
2023/05/10 03:15:14;;;;;;;5.93;1.20;;;;;;;-145.69;100.00;52519.63;5054713;28;20669;-76
2023/05/10 03:17:48;;;;;;;3.97;1.30;;;;;;;-145.69;100.00;52543.41;5054875;28;20199;-76
2023/05/10 03:20:23;;;;;;;2.17;1.20;;;;;;;-145.69;100.00;52575.09;5034871;28;20215;-76
2023/05/10 03:22:54;;;;;;;1.10;0.90;;;;;;;-145.69;100.00;52569.16;5034842;28;20231;-75
2023/05/10 03:25:22;;;;;;;6.30;1.57;;;;;;;-145.69;100.00;52523.59;5034810;28;20208;-76
2023/05/10 03:27:49;;;;;;;4.57;1.43;;;;;;;-145.69;100.00;52531.53;5035851;28;20608;-76
2023/05/10 03:30:16;;;;;;;1.47;1.20;;;;;;;-145.69;100.00;52592.91;5074791;28;20209;-77
2023/05/10 03:32:43;;;;;;;2.47;1.50;;;;;;;-145.69;100.00;52567.16;5074429;28;20693;-76
2023/05/10 03:35:11;;;;;;;2.57;1.73;;;;;;;-145.69;100.00;52583.00;5074358;28;20265;-76
2023/05/10 03:37:39;;;;;;;2.07;1.40;;;;;;;-145.69;100.00;52547.38;5039278;28;20231;-76
2023/05/10 03:40:07;;;;;;;2.37;1.40;;;;;;;-145.69;100.00;52579.06;5043340;28;20191;-76
2023/05/10 03:42:33;;;;;;;3.23;1.53;;;;;;;-145.69;100.00;52573.13;5074679;28;20226;-76
2023/05/10 03:45:02;;;;;;;3.60;1.37;;;;;;;-145.69;100.00;52569.16;5074217;28;20198;-76
2023/05/10 03:47:31;;;;;;;3.23;1.33;;;;;;;-145.69;100.00;52553.31;5074026;28;20258;-76
2023/05/10 03:49:59;;;;;;;1.90;1.30;;;;;;;-145.69;100.00;52511.72;5057084;28;20712;-76
2023/05/10 03:52:26;;;;;;;2.27;1.30;;;;;;;-145.69;100.00;52551.31;5056809;28;20191;-76
2023/05/10 03:54:56;;;;;;;3.87;1.30;;;;;;;-145.69;100.00;52598.84;5074116;28;20203;-76
2023/05/10 03:57:23;;;;;;;1.40;1.30;;;;;;;-145.69;100.00;52547.38;5074242;28;20224;-76
2023/05/10 03:59:52;;;;;;;2.93;1.13;;;;;;;-145.69;100.00;52555.28;5074013;28;20203;-76
2023/05/10 04:02:18;;;;;;;4.87;1.40;;;;;;;-145.69;100.00;52543.41;5073946;28;20238;-76
2023/05/10 04:04:45;;;;;;;4.40;1.30;;;;;;;-145.69;100.00;52563.22;5065866;28;20199;-76
2023/05/10 04:07:11;;;;;;;3.10;1.50;;;;;;;-145.69;100.00;52553.31;5053955;28;20272;-76
2023/05/10 04:09:37;;;;;;;1.87;1.40;;;;;;;-145.69;100.00;52547.38;5054850;28;20210;-76
2023/05/10 04:12:06;;;;;;;4.53;1.50;;;;;;;-145.69;100.00;52529.53;5071151;28;20202;-76
2023/05/10 04:14:33;;;;;;;1.80;1.40;;;;;;;-145.69;100.00;52567.16;5053686;28;20689;-76
2023/05/10 04:16:59;;;;;;;1.40;1.30;;;;;;;-145.69;100.00;52551.31;5064398;28;20620;-76
2023/05/10 04:19:30;;;;;;;2.50;1.30;;;;;;;-145.69;100.00;52539.44;5073759;28;20202;-76
2023/05/10 04:21:56;;;;;;;2.17;1.40;;;;;;;-145.69;100.00;52559.25;5056516;28;20192;-76
2023/05/10 04:24:22;;;;;;;3.00;1.83;;;;;;;-145.69;100.00;52577.06;5053599;28;20256;-77
2023/05/10 04:26:51;;;;;;;1.97;1.37;;;;;;;-145.69;100.00;52535.47;5053665;28;20203;-77
2023/05/10 04:29:22;;;;;;;1.83;1.43;;;;;;;-145.69;100.00;52555.28;5053413;28;20716;-77
2023/05/10 04:31:50;;;;;;;1.93;1.40;;;;;;;-145.69;100.00;52561.22;5053583;28;20235;-77
2023/05/10 04:34:17;;;;;;;5.70;1.67;;;;;;;-145.69;100.00;52539.44;5055577;28;20230;-77
2023/05/10 04:36:47;;;;;;;2.70;1.77;;;;;;;-145.69;100.00;52571.13;5066238;28;20194;-77
2023/05/10 04:39:14;;;;;;;2.67;1.40;;;;;;;-145.69;100.00;52551.31;5057550;28;20438;-77
2023/05/10 04:41:40;;;;;;;2.07;1.50;;;;;;;-145.69;100.00;52541.44;5061190;28;20199;-77
2023/05/10 04:44:07;;;;;;;3.17;1.50;;;;;;;-145.69;100.00;52547.38;5053360;28;20206;-77
2023/05/10 04:46:35;;;;;;;1.73;1.50;;;;;;;-145.69;100.00;52543.41;5053181;28;20243;-77
2023/05/10 04:49:04;;;;;;;1.50;1.40;;;;;;;-145.69;100.00;52543.41;5052984;28;20195;-77
2023/05/10 04:51:31;;;;;;;2.83;1.50;;;;;;;-145.69;100.00;52585.00;5052926;28;20204;-77
2023/05/10 04:53:57;;;;;;;7.70;1.63;;;;;;;-145.69;100.00;52567.16;5065909;28;20284;-77
2023/05/10 04:56:23;;;;;;;1.60;1.40;;;;;;;-145.69;100.00;52569.16;5073099;28;20252;-77
2023/05/10 04:58:50;;;;;;;6.97;1.70;;;;;;;-145.69;100.00;52553.31;5073238;28;20210;-77
2023/05/10 05:01:16;;;;;;;2.13;1.60;;;;;;;-145.69;100.00;52523.59;5073260;28;20553;-78
2023/05/10 05:03:44;;;;;;;2.13;1.30;;;;;;;-145.69;100.00;52553.31;5066694;28;20202;-78
2023/05/10 05:06:11;;;;;;;2.40;1.47;;;;;;;-145.69;100.00;52539.44;5073102;28;20194;-78
2023/05/10 05:08:37;;;;;;;5.53;1.50;;;;;;;-145.69;100.00;52547.38;5072730;28;20199;-77
2023/05/10 05:11:04;;;;;;;2.23;1.30;;;;;;;-145.69;100.00;52547.38;5070786;28;20192;-77
2023/05/10 05:13:30;;;;;;;1.87;1.20;;;;;;;-145.69;100.00;52573.13;5072205;28;20218;-77
2023/05/10 05:15:57;;;;;;;2.53;1.30;;;;;;;-145.69;100.00;52565.19;5072951;28;20206;-77
2023/05/10 05:18:23;;;;;;;1.97;1.40;;;;;;;-145.69;100.00;52577.06;5072864;28;20535;-77
2023/05/10 05:20:51;;;;;;;2.10;1.43;;;;;;;-145.69;100.00;52539.44;5072814;28;20539;-77
2023/05/10 05:23:18;;;;;;;3.40;1.80;;;;;;;-145.69;100.00;52559.25;5072967;28;20198;-77
2023/05/10 05:25:44;;;;;;;2.23;1.80;;;;;;;-145.69;100.00;52575.09;5065910;28;20199;-77
2023/05/10 05:28:11;;;;;;;5.00;1.80;;;;;;;-145.69;100.00;52557.28;5066688;28;20191;-77
2023/05/10 05:30:37;;;;;;;6.20;1.30;;;;;;;-145.69;100.00;52571.13;5064718;28;20213;-77
2023/05/10 05:33:04;;;;;;;1.60;1.20;;;;;;;-145.69;100.00;52559.25;5058172;28;20559;-76
2023/05/10 05:35:31;;;;;;;2.17;1.40;;;;;;;-145.69;100.00;52539.44;5072952;28;20207;-77
2023/05/10 05:37:58;;;;;;;2.23;1.33;;;;;;;-145.69;100.00;52529.53;5044231;28;20544;-76
2023/05/10 05:40:27;;;;;;;2.07;1.00;;;;;;;-145.69;100.00;52561.22;5043025;28;20201;-76
2023/05/10 05:42:53;;;;;;;1.13;0.90;;;;;;;-145.69;100.00;52559.25;5063064;28;20206;-77
2023/05/10 05:45:20;;;;;;;3.73;1.00;;;;;;;-145.69;100.00;52539.44;5072610;28;20206;-76
2023/05/10 05:47:49;;;;;;;5.90;1.00;;;;;;;-145.69;100.00;52559.25;5072341;28;20231;-76
2023/05/10 05:50:16;;;;;;;1.10;0.80;;;;;;;-145.69;100.00;52579.06;5072482;28;20205;-76
2023/05/10 05:52:43;;;;;;;1.00;0.90;;;;;;;-145.69;100.00;52527.56;5063896;28;20199;-76
2023/05/10 05:55:10;;;;;;;0.87;0.87;;;;;;;-145.69;100.00;52519.63;5052525;28;20233;-76
2023/05/10 05:57:37;;;;;;;1.10;0.80;;;;;;;-145.69;100.00;52573.13;5052632;28;20200;-76
2023/05/10 06:00:04;;;;;;;0.97;0.87;;;;;;;-145.69;100.00;52575.09;5052392;28;20231;-76
2023/05/10 06:02:31;;;;;;;1.23;0.80;;;;;;;-145.69;100.00;52547.38;5053740;28;20204;-77
2023/05/10 06:04:57;;;;;;;2.90;0.73;;;;;;;-145.69;100.00;52563.22;5063458;28;20195;-76
2023/05/10 06:07:24;;;;;;;1.63;0.80;;;;;;;-145.69;100.00;52579.06;5052264;28;20200;-76
2023/05/10 06:09:50;;;;;;;1.00;0.90;;;;;;;-145.69;100.00;52539.44;5051854;28;20196;-76
2023/05/10 06:12:20;;;;;;;1.33;1.00;;;;;;;-145.69;100.00;52519.63;5053418;28;20198;-76
2023/05/10 06:14:47;;;;;;;0.73;0.70;;;;;;;-145.69;100.00;52515.69;5054443;28;20223;-76
2023/05/10 06:17:13;;;;;;;1.90;0.60;;;;;;;-145.69;100.00;52567.16;5068704;28;20203;-76
2023/05/10 06:19:40;;;;;;;0.77;0.77;;;;;;;-145.69;100.00;52541.44;5075903;28;20205;-76
2023/05/10 06:22:06;;;;;;;3.30;0.90;;;;;;;-145.69;100.00;52553.31;5076004;28;20241;-76
2023/05/10 06:24:34;;;;;;;0.97;0.90;;;;;;;-145.69;100.00;52547.38;5075863;28;20195;-77
2023/05/10 06:27:01;;;;;;;2.00;1.00;;;;;;;-145.69;100.00;52527.56;5075728;28;20657;-76
2023/05/10 06:29:29;;;;;;;2.80;0.80;;;;;;;-145.69;100.00;52563.22;5068763;28;20244;-77
2023/05/10 06:31:58;;;;;;;1.80;0.80;;;;;;;-145.69;100.00;52529.53;5075802;28;20222;-76
2023/05/10 06:34:29;;;;;;;1.83;0.90;;;;;;;-145.69;100.00;52523.59;5058478;28;20223;-77
2023/05/10 06:36:55;;;;;;;1.58;0.90;;;;;;;-145.69;100.00;52533.50;5061518;28;20720;-77
2023/05/10 06:39:25;;;;;;;0.70;0.60;;;;;;;-145.69;100.00;52531.53;5075604;28;20665;-77
2023/05/10 06:41:52;;;;;;;1.25;0.73;;;;;;;-145.69;100.00;52533.50;5067524;28;20192;-76
2023/05/10 06:44:19;;;;;;;0.80;0.70;;;;;;;-145.69;100.00;52511.72;5067030;28;20199;-77
2023/05/10 06:46:47;;;;;;;1.70;0.90;;;;;;;-145.69;100.00;52551.31;5068769;28;20444;-77
2023/05/10 06:49:13;;;;;;;1.13;1.00;;;;;;;-145.69;100.00;52557.28;5058362;28;20196;-76
2023/05/10 06:51:42;;;;;;;1.15;0.80;;;;;;;-145.69;100.00;52509.75;5063903;28;20195;-77
2023/05/10 06:54:09;;;;;;;3.53;0.80;;;;;;;-145.69;100.00;52541.44;5072484;28;20219;-77
2023/05/10 06:56:35;;;;;;;5.57;0.88;;;;;;;-145.69;100.00;52539.44;5075289;28;20654;-77
2023/05/10 06:59:02;;;;;;;1.08;0.90;;;;;;;-145.69;100.00;52559.25;5075206;28;20561;-77
2023/05/10 07:01:29;;;;;;;1.55;1.00;;;;;;;-145.69;100.00;52555.28;5075247;28;20202;-77
2023/05/10 07:03:59;;;;;;;1.42;0.90;;;;;;;-145.69;100.00;52511.72;5070987;28;20191;-76
2023/05/10 07:06:25;;;;;;;1.15;0.93;;;;;;;-145.69;100.00;52513.69;5075396;28;20222;-75
2023/05/10 07:08:52;;;;;;;2.20;1.13;;;;;;;-145.69;100.00;52529.53;5075060;28;20206;-76
2023/05/10 07:11:19;;;;;;;1.25;0.85;;;;;;;-145.69;100.00;52547.38;5071098;28;20191;-75
2023/05/10 07:13:46;;;;;;;0.90;0.80;;;;;;;-145.69;100.00;52503.81;5054727;28;20235;-75
2023/05/10 07:16:12;;;;;;;2.83;0.90;;;;;;;-145.69;100.00;52559.25;5055943;28;20191;-76
2023/05/10 07:18:39;;;;;;;1.67;0.90;;;;;;;-145.69;100.00;52507.75;5055120;28;20204;-75
2023/05/10 07:21:07;;;;;;;1.13;0.90;;;;;;;-145.69;100.00;52551.31;5054975;28;20278;-75
2023/05/10 07:23:33;;;;;;;1.10;1.00;;;;;;;-145.69;100.00;52529.53;5054936;28;20214;-76
2023/05/10 07:26:00;;;;;;;2.80;0.98;;;;;;;-145.69;100.00;52497.84;5053790;28;20700;-75
2023/05/10 07:28:26;;;;;;;0.95;0.80;;;;;;;-145.69;100.00;52555.28;5050172;28;20207;-75
2023/05/10 07:30:53;;;;;;;3.55;0.80;;;;;;;-145.69;100.00;52539.44;5034954;28;20258;-76
2023/05/10 07:33:22;;;;;;;1.00;0.93;;;;;;;-145.69;100.00;52519.63;5053979;28;20212;-75
2023/05/10 07:35:48;;;;;;;1.25;0.80;;;;;;;-145.69;100.00;52535.47;5054632;28;20230;-75
2023/05/10 07:38:17;;;;;;;3.03;1.03;;;;;;;-145.69;100.00;52543.41;5054559;28;20203;-75
2023/05/10 07:40:43;;;;;;;1.97;1.10;;;;;;;-145.69;100.00;52509.75;5054617;28;20203;-76
2023/05/10 07:43:10;;;;;;;1.15;0.90;;;;;;;-145.69;100.00;52545.38;5064639;28;20203;-75
2023/05/10 07:45:36;;;;;;;2.20;0.93;;;;;;;-145.69;100.00;52523.59;5074474;28;20207;-76
2023/05/10 07:48:03;;;;;;;1.20;0.93;;;;;;;-145.69;100.00;52543.41;5072196;28;20238;-75
2023/05/10 07:50:29;;;;;;;0.80;0.80;;;;;;;-145.69;100.00;52535.47;5074456;28;20199;-75
2023/05/10 07:52:59;;;;;;;0.88;0.80;;;;;;;-145.69;100.00;52515.69;5074178;28;20203;-76
2023/05/10 07:55:27;;;;;;;3.00;1.35;;;;;;;-145.69;100.00;52523.59;5074027;28;20584;-75
2023/05/10 07:57:53;;;;;;;2.42;1.20;;;;;;;-145.69;100.00;52543.41;5064027;28;20192;-76
2023/05/10 08:00:21;;;;;;;1.47;1.13;;;;;;;-145.69;100.00;52539.44;5066105;28;20195;-75
2023/05/10 08:02:48;;;;;;;5.20;1.03;;;;;;;-145.69;100.00;52559.25;5064134;28;20206;-74
2023/05/10 08:05:14;;;;;;;2.60;1.20;;;;;;;-145.69;100.00;52527.56;5054098;28;20230;-74
2023/05/10 08:07:42;;;;;;;1.17;0.90;;;;;;;-145.69;100.00;52533.50;5053909;28;20202;-75
2023/05/10 08:10:10;;;;;;;1.37;0.90;;;;;;;-145.69;100.00;52521.63;5053858;28;20211;-75
2023/05/10 08:12:38;;;;;;;5.30;1.10;;;;;;;-145.69;100.00;52551.31;5055428;28;20195;-75
2023/05/10 08:15:09;;;;;;;1.87;0.80;;;;;;;-145.69;100.00;52569.16;5073909;28;20226;-75
2023/05/10 08:17:35;;;;;;;1.50;0.90;;;;;;;-145.69;100.00;52579.06;5073432;28;20202;-75
2023/05/10 08:20:02;;;;;;;0.80;0.80;;;;;;;-145.69;100.00;52563.22;5064983;28;20195;-75
2023/05/10 08:22:28;;;;;;;2.00;1.03;;;;;;;-145.69;100.00;52551.31;5053757;28;20200;-76
2023/05/10 08:24:55;;;;;;;1.43;0.87;;;;;;;-145.69;100.00;52559.25;5053990;28;20199;-76
2023/05/10 08:27:21;;;;;;;2.50;1.00;;;;;;;-145.69;100.00;52539.44;5073296;28;20205;-75
2023/05/10 08:29:50;;;;;;;1.13;1.03;;;;;;;-145.69;100.00;52539.44;5073455;28;20570;-76
2023/05/10 08:32:16;;;;;;;1.33;1.10;;;;;;;-145.69;100.00;52539.44;5073415;28;20656;-76
2023/05/10 08:34:43;;;;;;;1.37;1.00;;;;;;;-145.69;100.00;52547.38;5072847;28;20219;-76
2023/05/10 08:37:12;;;;;;;0.97;0.73;;;;;;;-145.69;100.00;52545.38;5068347;28;20270;-75
2023/05/10 08:39:39;;;;;;;0.73;0.73;;;;;;;-145.69;100.00;52523.59;5053567;28;20257;-76
2023/05/10 08:42:08;;;;;;;1.60;0.97;;;;;;;-145.69;100.00;52527.56;5062516;28;20203;-75
2023/05/10 08:44:35;;;;;;;1.10;0.70;;;;;;;-145.69;100.00;52559.25;5073396;28;20213;-75
2023/05/10 08:47:06;;;;;;;1.40;0.80;;;;;;;-145.69;100.00;52521.63;5071216;28;20280;-75
2023/05/10 08:49:33;;;;;;;2.50;0.70;;;;;;;-145.69;100.00;52533.50;5053390;28;20278;-75
2023/05/10 08:52:05;;;;;;;2.20;0.60;;;;;;;-145.69;100.00;52541.44;5053076;28;20556;-75
2023/05/10 08:54:32;;;;;;;0.63;0.63;;;;;;;-145.69;100.00;52545.38;5053251;28;20269;-78
2023/05/10 08:56:59;;;;;;;1.93;0.70;;;;;;;-145.69;100.00;52537.47;5053921;28;20199;-78
2023/05/10 08:59:29;;;;;;;2.63;0.60;;;;;;;-145.69;100.00;52513.69;5072745;28;20660;-79
2023/05/10 09:01:58;;;;;;;4.43;0.80;;;;;;;-145.69;100.00;52521.63;5073062;28;20202;-79
2023/05/10 09:04:26;;;;;;;2.47;0.73;;;;;;;-145.69;100.00;52545.38;5059536;28;20207;-76
2023/05/10 09:06:53;;;;;;;2.90;0.80;;;;;;;-145.69;100.00;52507.75;5053076;28;20199;-79
2023/05/10 09:09:21;;;;;;;1.05;0.73;;;;;;;-145.69;100.00;52511.72;5053763;28;20206;-79
2023/05/10 09:11:47;;;;;;;2.80;0.80;;;;;;;-145.69;100.00;52501.81;5072699;28;20257;-79
2023/05/10 09:14:17;;;;;;;3.50;0.60;;;;;;;-145.69;100.00;52493.91;5072598;28;20672;-79
2023/05/10 09:16:43;;;;;;;1.45;0.50;;;;;;;-145.69;100.00;52472.13;5072776;28;20562;-76
2023/05/10 09:19:10;;;;;;;0.60;0.50;;;;;;;-145.69;100.00;52519.63;5072900;28;20234;-78
2023/05/10 09:21:38;;;;;;;0.55;0.45;;;;;;;-145.69;100.00;52485.97;5068920;28;20211;-78
2023/05/10 09:24:06;;;;;;;0.98;0.52;;;;;;;-145.69;100.00;52511.72;5052960;28;20628;-78
2023/05/10 09:26:35;;;;;;;0.85;0.70;;;;;;;-145.69;100.00;52515.69;5052632;28;20558;-79
2023/05/10 09:29:02;;;;;;;4.90;0.90;;;;;;;-145.69;100.00;52523.59;5052716;28;20231;-78
2023/05/10 09:31:46;;;;;;;1.52;0.70;;;;;;;-145.69;100.00;52511.72;5052695;28;20215;-78
2023/05/10 09:34:17;;;;;;;0.98;0.60;;;;;;;-145.69;100.00;52505.78;5054090;28;20195;-77
2023/05/10 09:36:56;;;;;;;3.05;0.75;;;;;;;-145.69;100.00;52519.63;5049167;28;20657;-76
2023/05/10 09:39:31;;;;;;;4.47;0.70;;;;;;;-145.69;100.00;52515.69;5052603;28;20202;-78
2023/05/10 09:41:58;;;;;;;1.65;0.60;;;;;;;-145.69;100.00;52527.56;5052833;28;20306;-75
2023/05/10 09:44:26;;;;;;;0.77;0.57;;;;;;;-145.69;100.00;52505.78;5052544;28;20256;-76
2023/05/10 09:46:55;;;;;;;1.00;0.60;;;;;;;-145.69;100.00;52535.47;5062722;28;20223;-77
2023/05/10 09:49:22;;;;;;;0.60;0.60;;;;;;;-145.69;100.00;52497.84;5073581;28;20214;-75
2023/05/10 09:52:06;;;;;;;2.85;0.70;;;;;;;-145.69;100.00;52491.91;5076130;28;20207;-77
2023/05/10 09:54:33;;;;;;;1.65;1.05;;;;;;;-145.69;100.00;52489.94;5069120;28;20286;-76
2023/05/10 09:57:03;;;;;;;1.23;0.50;;;;;;;-145.69;100.00;52499.84;5063518;28;20253;-76
2023/05/10 09:59:31;;;;;;;2.17;0.70;;;;;;;-145.69;100.00;52513.69;5073302;28;20577;-76
2023/05/10 10:01:59;;;;;;;6.47;0.80;;;;;;;-145.69;100.00;52495.88;5076418;28;20199;-76
2023/05/10 10:04:25;;;;;;;1.50;0.60;;;;;;;-145.69;100.00;52519.63;5074312;28;20202;-76
2023/05/10 10:07:02;;;;;;;2.40;0.63;;;;;;;-145.69;100.00;52499.84;5076159;28;20206;-75
2023/05/10 10:09:30;;;;;;;3.25;1.02;;;;;;;-145.69;100.00;52489.94;5075962;28;20198;-75
2023/05/10 10:11:57;;;;;;;3.63;0.95;;;;;;;-145.69;100.00;52452.31;5076147;28;20662;-76
2023/05/10 10:14:24;;;;;;;3.55;0.60;;;;;;;-145.69;100.00;52474.09;5059014;28;20326;-76
2023/05/10 10:16:51;;;;;;;1.85;0.70;;;;;;;-145.69;100.00;52480.03;5055733;28;20219;-76
2023/05/10 10:19:21;;;;;;;1.42;0.63;;;;;;;-145.69;100.00;52464.19;5054401;28;20518;-76
2023/05/10 10:21:48;;;;;;;1.20;0.70;;;;;;;-145.69;100.00;52470.13;5056161;28;20207;-76
2023/05/10 10:24:15;;;;;;;0.75;0.57;;;;;;;-145.69;100.00;52478.06;5056030;28;20200;-76
2023/05/10 10:26:43;;;;;;;2.90;0.50;;;;;;;-145.69;100.00;52472.13;5056170;28;20206;-76
2023/05/10 10:29:22;;;;;;;0.70;0.70;;;;;;;-145.69;100.00;52462.22;5063222;28;20657;-76
2023/05/10 10:31:57;;;;;;;2.90;0.60;;;;;;;-145.69;100.00;52452.31;5075638;28;20195;-76
2023/05/10 10:34:30;;;;;;;2.65;0.65;;;;;;;-145.69;100.00;52468.16;5075913;28;20285;-76
2023/05/10 10:36:59;;;;;;;0.80;0.55;;;;;;;-145.69;100.00;52442.41;5073129;28;20221;-76
2023/05/10 10:39:25;;;;;;;4.82;0.70;;;;;;;-145.69;100.00;52412.69;5061233;28;20231;-76
2023/05/10 10:41:54;;;;;;;1.35;0.60;;;;;;;-145.69;100.00;52454.28;5055497;28;20239;-75
2023/05/10 10:44:35;;;;;;;1.95;0.75;;;;;;;-145.69;100.00;52464.19;5055346;28;20211;-76
2023/05/10 10:47:24;;;;;;;1.95;0.70;;;;;;;-145.69;100.00;52420.63;5055280;28;20328;-76
2023/05/10 10:50:04;;;;;;;4.05;0.77;;;;;;;-145.69;99.87;52452.31;5063340;28;20274;-75
2023/05/10 10:52:35;;;;;;;1.45;0.60;;;;;;;-145.69;100.00;52456.28;5075241;28;20669;-76
2023/05/10 10:55:05;;;;;;;0.60;0.60;;;;;;;-145.69;100.00;52464.19;5075212;28;20580;-75
2023/05/10 10:57:44;;;;;;;14.27;2.78;;;;;;;-145.69;100.00;52456.28;5075482;28;20736;-77
2023/05/10 11:00:37;;;;;;;11.07;2.50;;;;;;;-145.69;100.00;52452.31;5058258;28;20270;-81
2023/05/10 11:03:07;;;;;;;5.05;0.80;;;;;;;-145.69;100.00;52476.06;5066917;28;20283;-80
2023/05/10 11:05:41;;;;;;;3.35;0.60;;;;;;;-145.69;100.00;52491.91;5075164;28;20199;-83
2023/05/10 11:08:17;;;;;;;1.63;0.60;;;;;;;-145.69;100.00;52482.00;5075056;28;20201;-77
2023/05/10 11:11:03;;;;;;;8.57;1.40;;;;;;;-145.69;100.00;52527.56;5074653;28;20233;-77
2023/05/10 11:13:32;;;;;;;10.13;1.38;;;;;;;-145.69;100.00;52519.63;5064669;28;20199;-76
2023/05/10 11:15:59;;;;;;;1.05;0.68;;;;;;;-145.69;100.00;52501.81;5055030;28;20232;-77
2023/05/10 11:18:28;;;;;;;6.22;1.20;;;;;;;-145.69;100.00;52480.03;5045290;28;20212;-76